sensor_id;sensor_type;location;lat;lon;timestamp;P1;durP1;ratioP1;P2;durP2;ratioP2
54983;SDS011;40884;53.562;9.940;2022-12-07T00:00:44;11.60;;;10.07;;
54983;SDS011;40884;53.562;9.940;2022-12-07T00:01:45;11.07;;;9.83;;
54983;SDS011;40884;53.562;9.940;2022-12-07T00:02:46;10.83;;;9.60;;
54983;SDS011;40884;53.562;9.940;2022-12-07T00:03:46;11.77;;;10.57;;
54983;SDS011;40884;53.562;9.940;2022-12-07T00:04:48;11.47;;;9.70;;
54983;SDS011;40884;53.562;9.940;2022-12-07T00:05:48;11.07;;;9.97;;
54983;SDS011;40884;53.562;9.940;2022-12-07T00:06:50;12.43;;;10.73;;
54983;SDS011;40884;53.562;9.940;2022-12-07T00:07:50;12.63;;;9.97;;
54983;SDS011;40884;53.562;9.940;2022-12-07T00:08:51;10.77;;;9.67;;
54983;SDS011;40884;53.562;9.940;2022-12-07T00:09:51;10.93;;;9.77;;
54983;SDS011;40884;53.562;9.940;2022-12-07T00:10:51;12.63;;;10.60;;
54983;SDS011;40884;53.562;9.940;2022-12-07T00:11:51;11.63;;;10.47;;
54983;SDS011;40884;53.562;9.940;2022-12-07T00:12:51;12.07;;;10.77;;
54983;SDS011;40884;53.562;9.940;2022-12-07T00:13:52;12.37;;;10.43;;
54983;SDS011;40884;53.562;9.940;2022-12-07T00:14:53;12.73;;;10.87;;
54983;SDS011;40884;53.562;9.940;2022-12-07T00:15:53;12.53;;;10.13;;
54983;SDS011;40884;53.562;9.940;2022-12-07T00:16:53;13.20;;;10.87;;
54983;SDS011;40884;53.562;9.940;2022-12-07T00:17:53;11.30;;;10.10;;
54983;SDS011;40884;53.562;9.940;2022-12-07T00:18:53;11.47;;;10.27;;
54983;SDS011;40884;53.562;9.940;2022-12-07T00:19:53;11.40;;;10.13;;
54983;SDS011;40884;53.562;9.940;2022-12-07T00:20:58;12.10;;;10.70;;
54983;SDS011;40884;53.562;9.940;2022-12-07T00:21:58;14.47;;;10.73;;
54983;SDS011;40884;53.562;9.940;2022-12-07T00:22:58;12.60;;;10.83;;
54983;SDS011;40884;53.562;9.940;2022-12-07T00:23:59;12.07;;;9.67;;
54983;SDS011;40884;53.562;9.940;2022-12-07T00:24:59;12.57;;;10.77;;
54983;SDS011;40884;53.562;9.940;2022-12-07T00:26:03;12.40;;;11.10;;
54983;SDS011;40884;53.562;9.940;2022-12-07T00:27:03;11.93;;;10.63;;
54983;SDS011;40884;53.562;9.940;2022-12-07T00:28:03;12.37;;;10.93;;
54983;SDS011;40884;53.562;9.940;2022-12-07T00:29:04;13.47;;;11.20;;
54983;SDS011;40884;53.562;9.940;2022-12-07T00:30:05;12.10;;;10.80;;
54983;SDS011;40884;53.562;9.940;2022-12-07T00:31:07;13.30;;;10.83;;
54983;SDS011;40884;53.562;9.940;2022-12-07T00:32:07;12.20;;;10.80;;
54983;SDS011;40884;53.562;9.940;2022-12-07T00:33:08;11.63;;;10.10;;
54983;SDS011;40884;53.562;9.940;2022-12-07T00:34:12;11.87;;;10.23;;
54983;SDS011;40884;53.562;9.940;2022-12-07T00:35:12;10.67;;;9.57;;
54983;SDS011;40884;53.562;9.940;2022-12-07T00:36:14;10.60;;;9.60;;
54983;SDS011;40884;53.562;9.940;2022-12-07T00:37:14;11.50;;;10.30;;
54983;SDS011;40884;53.562;9.940;2022-12-07T00:38:14;11.70;;;10.40;;
54983;SDS011;40884;53.562;9.940;2022-12-07T00:39:15;11.30;;;9.87;;
54983;SDS011;40884;53.562;9.940;2022-12-07T00:40:15;11.43;;;9.80;;
54983;SDS011;40884;53.562;9.940;2022-12-07T00:41:16;11.57;;;10.37;;
54983;SDS011;40884;53.562;9.940;2022-12-07T00:42:16;11.53;;;9.47;;
54983;SDS011;40884;53.562;9.940;2022-12-07T00:43:17;12.20;;;8.87;;
54983;SDS011;40884;53.562;9.940;2022-12-07T00:44:17;11.47;;;9.43;;
54983;SDS011;40884;53.562;9.940;2022-12-07T00:45:17;12.43;;;10.23;;
54983;SDS011;40884;53.562;9.940;2022-12-07T00:46:18;11.20;;;9.07;;
54983;SDS011;40884;53.562;9.940;2022-12-07T00:47:18;9.93;;;8.80;;
54983;SDS011;40884;53.562;9.940;2022-12-07T00:48:18;10.20;;;9.20;;
54983;SDS011;40884;53.562;9.940;2022-12-07T00:49:18;9.13;;;8.20;;
54983;SDS011;40884;53.562;9.940;2022-12-07T00:50:18;10.83;;;9.00;;
54983;SDS011;40884;53.562;9.940;2022-12-07T00:51:20;10.50;;;8.73;;
54983;SDS011;40884;53.562;9.940;2022-12-07T00:52:21;9.10;;;8.20;;
54983;SDS011;40884;53.562;9.940;2022-12-07T00:53:21;12.97;;;8.50;;
54983;SDS011;40884;53.562;9.940;2022-12-07T00:54:21;9.23;;;7.77;;
54983;SDS011;40884;53.562;9.940;2022-12-07T00:55:21;8.83;;;7.93;;
54983;SDS011;40884;53.562;9.940;2022-12-07T00:56:23;8.53;;;7.50;;
54983;SDS011;40884;53.562;9.940;2022-12-07T00:57:23;8.80;;;7.87;;
54983;SDS011;40884;53.562;9.940;2022-12-07T00:58:23;10.00;;;9.00;;
54983;SDS011;40884;53.562;9.940;2022-12-07T00:59:23;9.80;;;8.20;;
54983;SDS011;40884;53.562;9.940;2022-12-07T01:00:23;8.57;;;7.67;;
54983;SDS011;40884;53.562;9.940;2022-12-07T01:01:24;8.03;;;6.47;;
54983;SDS011;40884;53.562;9.940;2022-12-07T01:02:24;8.87;;;7.90;;
54983;SDS011;40884;53.562;9.940;2022-12-07T01:03:24;7.07;;;6.37;;
54983;SDS011;40884;53.562;9.940;2022-12-07T01:04:25;9.37;;;8.40;;
54983;SDS011;40884;53.562;9.940;2022-12-07T01:05:25;7.67;;;6.90;;
54983;SDS011;40884;53.562;9.940;2022-12-07T01:06:25;8.73;;;7.53;;
54983;SDS011;40884;53.562;9.940;2022-12-07T01:07:25;8.67;;;7.43;;
54983;SDS011;40884;53.562;9.940;2022-12-07T01:08:26;9.03;;;7.30;;
54983;SDS011;40884;53.562;9.940;2022-12-07T01:09:26;8.20;;;7.30;;
54983;SDS011;40884;53.562;9.940;2022-12-07T01:10:27;10.90;;;7.57;;
54983;SDS011;40884;53.562;9.940;2022-12-07T01:11:28;7.47;;;6.77;;
54983;SDS011;40884;53.562;9.940;2022-12-07T01:12:28;8.03;;;7.20;;
54983;SDS011;40884;53.562;9.940;2022-12-07T01:13:28;9.47;;;6.77;;
54983;SDS011;40884;53.562;9.940;2022-12-07T01:14:28;8.90;;;7.40;;
54983;SDS011;40884;53.562;9.940;2022-12-07T01:15:29;7.37;;;6.43;;
54983;SDS011;40884;53.562;9.940;2022-12-07T01:16:30;9.87;;;7.50;;
54983;SDS011;40884;53.562;9.940;2022-12-07T01:17:30;9.50;;;7.53;;
54983;SDS011;40884;53.562;9.940;2022-12-07T01:18:31;9.00;;;7.30;;
54983;SDS011;40884;53.562;9.940;2022-12-07T01:19:32;8.33;;;6.97;;
54983;SDS011;40884;53.562;9.940;2022-12-07T01:20:32;7.00;;;6.30;;
54983;SDS011;40884;53.562;9.940;2022-12-07T01:21:33;7.80;;;6.77;;
54983;SDS011;40884;53.562;9.940;2022-12-07T01:22:40;10.07;;;7.57;;
54983;SDS011;40884;53.562;9.940;2022-12-07T01:23:40;8.13;;;7.23;;
54983;SDS011;40884;53.562;9.940;2022-12-07T01:24:41;9.00;;;7.43;;
54983;SDS011;40884;53.562;9.940;2022-12-07T01:25:41;9.47;;;7.57;;
54983;SDS011;40884;53.562;9.940;2022-12-07T01:26:41;8.17;;;7.37;;
54983;SDS011;40884;53.562;9.940;2022-12-07T01:27:41;10.27;;;7.50;;
54983;SDS011;40884;53.562;9.940;2022-12-07T01:28:41;9.13;;;7.47;;
54983;SDS011;40884;53.562;9.940;2022-12-07T01:29:41;10.33;;;7.70;;
54983;SDS011;40884;53.562;9.940;2022-12-07T01:30:42;8.27;;;7.07;;
54983;SDS011;40884;53.562;9.940;2022-12-07T01:31:42;9.33;;;7.20;;
54983;SDS011;40884;53.562;9.940;2022-12-07T01:32:42;9.30;;;7.37;;
54983;SDS011;40884;53.562;9.940;2022-12-07T01:33:43;7.60;;;6.80;;
54983;SDS011;40884;53.562;9.940;2022-12-07T01:34:43;8.53;;;6.90;;
54983;SDS011;40884;53.562;9.940;2022-12-07T01:35:43;9.30;;;7.23;;
54983;SDS011;40884;53.562;9.940;2022-12-07T01:36:43;7.90;;;7.10;;
54983;SDS011;40884;53.562;9.940;2022-12-07T01:37:44;8.17;;;7.33;;
54983;SDS011;40884;53.562;9.940;2022-12-07T01:38:44;8.63;;;7.23;;
54983;SDS011;40884;53.562;9.940;2022-12-07T01:39:48;8.67;;;7.37;;
54983;SDS011;40884;53.562;9.940;2022-12-07T01:40:53;9.70;;;8.07;;
54983;SDS011;40884;53.562;9.940;2022-12-07T01:41:53;8.23;;;7.27;;
54983;SDS011;40884;53.562;9.940;2022-12-07T01:42:53;10.10;;;7.23;;
54983;SDS011;40884;53.562;9.940;2022-12-07T01:46:18;9.47;;;6.40;;
54983;SDS011;40884;53.562;9.940;2022-12-07T01:47:18;9.57;;;7.03;;
54983;SDS011;40884;53.562;9.940;2022-12-07T01:48:19;9.27;;;7.67;;
54983;SDS011;40884;53.562;9.940;2022-12-07T01:49:23;8.03;;;7.10;;
54983;SDS011;40884;53.562;9.940;2022-12-07T01:50:25;9.50;;;7.00;;
54983;SDS011;40884;53.562;9.940;2022-12-07T01:51:26;8.50;;;7.40;;
54983;SDS011;40884;53.562;9.940;2022-12-07T01:52:30;9.27;;;7.53;;
54983;SDS011;40884;53.562;9.940;2022-12-07T01:53:31;8.87;;;7.30;;
54983;SDS011;40884;53.562;9.940;2022-12-07T01:54:32;9.40;;;7.53;;
54983;SDS011;40884;53.562;9.940;2022-12-07T01:55:33;8.13;;;7.10;;
54983;SDS011;40884;53.562;9.940;2022-12-07T01:56:34;7.57;;;6.57;;
54983;SDS011;40884;53.562;9.940;2022-12-07T01:57:35;8.43;;;6.90;;
54983;SDS011;40884;53.562;9.940;2022-12-07T01:58:37;7.73;;;6.93;;
54983;SDS011;40884;53.562;9.940;2022-12-07T01:59:37;11.47;;;6.83;;
54983;SDS011;40884;53.562;9.940;2022-12-07T02:00:37;9.33;;;7.30;;
54983;SDS011;40884;53.562;9.940;2022-12-07T02:01:38;8.97;;;7.13;;
54983;SDS011;40884;53.562;9.940;2022-12-07T02:02:41;8.73;;;7.20;;
54983;SDS011;40884;53.562;9.940;2022-12-07T02:03:43;10.03;;;7.40;;
54983;SDS011;40884;53.562;9.940;2022-12-07T02:04:44;9.53;;;7.20;;
54983;SDS011;40884;53.562;9.940;2022-12-07T02:05:45;10.30;;;7.17;;
54983;SDS011;40884;53.562;9.940;2022-12-07T02:06:46;9.47;;;6.80;;
54983;SDS011;40884;53.562;9.940;2022-12-07T02:07:47;8.17;;;6.67;;
54983;SDS011;40884;53.562;9.940;2022-12-07T02:08:47;8.63;;;7.47;;
54983;SDS011;40884;53.562;9.940;2022-12-07T02:09:48;8.57;;;6.77;;
54983;SDS011;40884;53.562;9.940;2022-12-07T02:10:48;9.57;;;6.80;;
54983;SDS011;40884;53.562;9.940;2022-12-07T02:11:48;8.67;;;6.83;;
54983;SDS011;40884;53.562;9.940;2022-12-07T02:12:50;8.50;;;7.00;;
54983;SDS011;40884;53.562;9.940;2022-12-07T02:13:51;9.00;;;6.43;;
54983;SDS011;40884;53.562;9.940;2022-12-07T02:14:51;7.40;;;6.53;;
54983;SDS011;40884;53.562;9.940;2022-12-07T02:17:16;10.40;;;6.70;;
54983;SDS011;40884;53.562;9.940;2022-12-07T02:18:22;8.53;;;6.47;;
54983;SDS011;40884;53.562;9.940;2022-12-07T02:20:49;7.73;;;5.97;;
54983;SDS011;40884;53.562;9.940;2022-12-07T02:24:33;7.87;;;5.57;;
54983;SDS011;40884;53.562;9.940;2022-12-07T02:28:18;8.97;;;6.33;;
54983;SDS011;40884;53.562;9.940;2022-12-07T02:29:25;6.67;;;5.63;;
54983;SDS011;40884;53.562;9.940;2022-12-07T02:30:28;7.50;;;5.70;;
54983;SDS011;40884;53.562;9.940;2022-12-07T02:31:30;6.77;;;5.57;;
54983;SDS011;40884;53.562;9.940;2022-12-07T02:32:36;7.63;;;5.33;;
54983;SDS011;40884;53.562;9.940;2022-12-07T02:33:42;7.23;;;5.30;;
54983;SDS011;40884;53.562;9.940;2022-12-07T02:35:51;9.13;;;4.90;;
54983;SDS011;40884;53.562;9.940;2022-12-07T02:36:55;5.87;;;4.17;;
54983;SDS011;40884;53.562;9.940;2022-12-07T02:38:09;4.97;;;4.40;;
54983;SDS011;40884;53.562;9.940;2022-12-07T02:39:24;4.53;;;3.73;;
54983;SDS011;40884;53.562;9.940;2022-12-07T02:40:32;4.77;;;3.80;;
54983;SDS011;40884;53.562;9.940;2022-12-07T02:41:34;6.23;;;3.93;;
54983;SDS011;40884;53.562;9.940;2022-12-07T02:42:40;6.43;;;4.00;;
54983;SDS011;40884;53.562;9.940;2022-12-07T02:43:48;4.97;;;2.87;;
54983;SDS011;40884;53.562;9.940;2022-12-07T02:44:50;6.70;;;3.43;;
54983;SDS011;40884;53.562;9.940;2022-12-07T02:45:52;4.97;;;3.20;;
54983;SDS011;40884;53.562;9.940;2022-12-07T02:47:01;7.53;;;3.50;;
54983;SDS011;40884;53.562;9.940;2022-12-07T02:48:02;4.87;;;2.83;;
54983;SDS011;40884;53.562;9.940;2022-12-07T02:49:03;5.23;;;3.40;;
54983;SDS011;40884;53.562;9.940;2022-12-07T02:50:04;5.47;;;2.63;;
54983;SDS011;40884;53.562;9.940;2022-12-07T02:51:05;7.27;;;3.27;;
54983;SDS011;40884;53.562;9.940;2022-12-07T02:52:05;5.73;;;2.83;;
54983;SDS011;40884;53.562;9.940;2022-12-07T02:53:05;3.53;;;2.37;;
54983;SDS011;40884;53.562;9.940;2022-12-07T02:54:09;6.83;;;3.10;;
54983;SDS011;40884;53.562;9.940;2022-12-07T02:55:11;4.27;;;3.07;;
54983;SDS011;40884;53.562;9.940;2022-12-07T02:57:37;5.47;;;2.77;;
54983;SDS011;40884;53.562;9.940;2022-12-07T03:00:01;4.03;;;2.60;;
54983;SDS011;40884;53.562;9.940;2022-12-07T03:01:04;3.53;;;2.37;;
54983;SDS011;40884;53.562;9.940;2022-12-07T03:03:12;4.43;;;2.50;;
54983;SDS011;40884;53.562;9.940;2022-12-07T03:04:27;4.00;;;2.67;;
54983;SDS011;40884;53.562;9.940;2022-12-07T03:06:43;4.07;;;2.43;;
54983;SDS011;40884;53.562;9.940;2022-12-07T03:08:02;5.53;;;2.60;;
54983;SDS011;40884;53.562;9.940;2022-12-07T03:11:28;6.77;;;2.20;;
54983;SDS011;40884;53.562;9.940;2022-12-07T03:12:31;5.47;;;2.30;;
54983;SDS011;40884;53.562;9.940;2022-12-07T03:13:42;4.20;;;2.40;;
54983;SDS011;40884;53.562;9.940;2022-12-07T03:14:53;3.93;;;2.50;;
54983;SDS011;40884;53.562;9.940;2022-12-07T03:15:56;4.07;;;2.30;;
54983;SDS011;40884;53.562;9.940;2022-12-07T03:17:18;4.23;;;2.10;;
54983;SDS011;40884;53.562;9.940;2022-12-07T03:18:22;5.90;;;2.30;;
54983;SDS011;40884;53.562;9.940;2022-12-07T03:19:24;5.70;;;2.27;;
54983;SDS011;40884;53.562;9.940;2022-12-07T03:20:25;3.50;;;2.00;;
54983;SDS011;40884;53.562;9.940;2022-12-07T03:21:30;2.60;;;2.00;;
54983;SDS011;40884;53.562;9.940;2022-12-07T03:22:31;5.40;;;1.90;;
54983;SDS011;40884;53.562;9.940;2022-12-07T03:23:33;2.83;;;1.80;;
54983;SDS011;40884;53.562;9.940;2022-12-07T03:24:40;2.57;;;1.70;;
54983;SDS011;40884;53.562;9.940;2022-12-07T03:25:43;3.80;;;2.10;;
54983;SDS011;40884;53.562;9.940;2022-12-07T03:26:49;6.87;;;2.10;;
54983;SDS011;40884;53.562;9.940;2022-12-07T03:27:57;4.47;;;2.10;;
54983;SDS011;40884;53.562;9.940;2022-12-07T03:28:58;3.70;;;2.10;;
54983;SDS011;40884;53.562;9.940;2022-12-07T03:30:02;3.53;;;2.07;;
54983;SDS011;40884;53.562;9.940;2022-12-07T03:31:11;4.73;;;1.87;;
54983;SDS011;40884;53.562;9.940;2022-12-07T03:33:24;4.47;;;1.87;;
54983;SDS011;40884;53.562;9.940;2022-12-07T03:34:32;2.00;;;1.43;;
54983;SDS011;40884;53.562;9.940;2022-12-07T03:35:35;3.30;;;2.00;;
54983;SDS011;40884;53.562;9.940;2022-12-07T03:36:44;4.23;;;1.83;;
54983;SDS011;40884;53.562;9.940;2022-12-07T03:37:57;3.23;;;1.40;;
54983;SDS011;40884;53.562;9.940;2022-12-07T03:39:12;2.97;;;1.70;;
54983;SDS011;40884;53.562;9.940;2022-12-07T03:40:16;4.37;;;1.93;;
54983;SDS011;40884;53.562;9.940;2022-12-07T03:41:25;2.37;;;1.70;;
54983;SDS011;40884;53.562;9.940;2022-12-07T03:42:26;3.27;;;1.30;;
54983;SDS011;40884;53.562;9.940;2022-12-07T03:43:29;4.17;;;1.97;;
54983;SDS011;40884;53.562;9.940;2022-12-07T03:44:30;4.70;;;1.50;;
54983;SDS011;40884;53.562;9.940;2022-12-07T03:45:32;3.33;;;1.40;;
54983;SDS011;40884;53.562;9.940;2022-12-07T03:46:40;2.80;;;1.60;;
54983;SDS011;40884;53.562;9.940;2022-12-07T03:47:46;3.03;;;1.50;;
54983;SDS011;40884;53.562;9.940;2022-12-07T03:51:12;3.60;;;1.47;;
54983;SDS011;40884;53.562;9.940;2022-12-07T03:52:27;3.23;;;1.50;;
54983;SDS011;40884;53.562;9.940;2022-12-07T03:53:30;2.63;;;1.20;;
54983;SDS011;40884;53.562;9.940;2022-12-07T03:54:33;3.60;;;1.50;;
54983;SDS011;40884;53.562;9.940;2022-12-07T03:55:35;2.80;;;1.20;;
54983;SDS011;40884;53.562;9.940;2022-12-07T03:56:35;5.60;;;1.60;;
54983;SDS011;40884;53.562;9.940;2022-12-07T03:57:36;4.50;;;1.60;;
54983;SDS011;40884;53.562;9.940;2022-12-07T03:58:37;4.87;;;1.47;;
54983;SDS011;40884;53.562;9.940;2022-12-07T03:59:38;2.23;;;1.27;;
54983;SDS011;40884;53.562;9.940;2022-12-07T04:00:39;3.23;;;1.57;;
54983;SDS011;40884;53.562;9.940;2022-12-07T04:01:44;3.33;;;1.53;;
54983;SDS011;40884;53.562;9.940;2022-12-07T04:02:44;3.43;;;1.20;;
54983;SDS011;40884;53.562;9.940;2022-12-07T04:03:45;3.20;;;1.53;;
54983;SDS011;40884;53.562;9.940;2022-12-07T04:04:45;3.63;;;1.47;;
54983;SDS011;40884;53.562;9.940;2022-12-07T04:05:45;3.57;;;1.67;;
54983;SDS011;40884;53.562;9.940;2022-12-07T04:06:45;3.30;;;1.33;;
54983;SDS011;40884;53.562;9.940;2022-12-07T04:07:45;4.30;;;1.40;;
54983;SDS011;40884;53.562;9.940;2022-12-07T04:08:46;3.00;;;1.33;;
54983;SDS011;40884;53.562;9.940;2022-12-07T04:09:46;3.30;;;1.20;;
54983;SDS011;40884;53.562;9.940;2022-12-07T04:10:46;3.40;;;1.23;;
54983;SDS011;40884;53.562;9.940;2022-12-07T04:11:46;4.33;;;1.40;;
54983;SDS011;40884;53.562;9.940;2022-12-07T04:12:46;3.03;;;1.27;;
54983;SDS011;40884;53.562;9.940;2022-12-07T04:13:46;3.23;;;1.40;;
54983;SDS011;40884;53.562;9.940;2022-12-07T04:14:46;1.73;;;0.90;;
54983;SDS011;40884;53.562;9.940;2022-12-07T04:15:47;3.27;;;1.33;;
54983;SDS011;40884;53.562;9.940;2022-12-07T04:16:50;2.30;;;1.30;;
54983;SDS011;40884;53.562;9.940;2022-12-07T04:17:50;2.10;;;1.23;;
54983;SDS011;40884;53.562;9.940;2022-12-07T04:18:50;2.77;;;1.20;;
54983;SDS011;40884;53.562;9.940;2022-12-07T04:19:51;3.70;;;1.33;;
54983;SDS011;40884;53.562;9.940;2022-12-07T04:20:51;4.10;;;1.47;;
54983;SDS011;40884;53.562;9.940;2022-12-07T04:21:51;2.50;;;1.23;;
54983;SDS011;40884;53.562;9.940;2022-12-07T04:22:51;2.30;;;1.30;;
54983;SDS011;40884;53.562;9.940;2022-12-07T04:23:51;2.00;;;1.33;;
54983;SDS011;40884;53.562;9.940;2022-12-07T04:24:51;2.97;;;1.13;;
54983;SDS011;40884;53.562;9.940;2022-12-07T04:25:51;3.30;;;1.20;;
54983;SDS011;40884;53.562;9.940;2022-12-07T04:26:52;2.83;;;1.33;;
54983;SDS011;40884;53.562;9.940;2022-12-07T04:27:52;2.47;;;1.50;;
54983;SDS011;40884;53.562;9.940;2022-12-07T04:28:52;2.43;;;1.40;;
54983;SDS011;40884;53.562;9.940;2022-12-07T04:29:52;3.87;;;1.30;;
54983;SDS011;40884;53.562;9.940;2022-12-07T04:30:52;3.60;;;1.37;;
54983;SDS011;40884;53.562;9.940;2022-12-07T04:31:52;2.60;;;1.50;;
54983;SDS011;40884;53.562;9.940;2022-12-07T04:32:52;3.57;;;1.50;;
54983;SDS011;40884;53.562;9.940;2022-12-07T04:33:52;3.53;;;1.50;;
54983;SDS011;40884;53.562;9.940;2022-12-07T04:34:52;2.40;;;1.40;;
54983;SDS011;40884;53.562;9.940;2022-12-07T04:35:53;1.93;;;1.50;;
54983;SDS011;40884;53.562;9.940;2022-12-07T04:36:53;3.83;;;1.50;;
54983;SDS011;40884;53.562;9.940;2022-12-07T04:37:53;2.80;;;1.47;;
54983;SDS011;40884;53.562;9.940;2022-12-07T04:38:53;3.80;;;1.40;;
54983;SDS011;40884;53.562;9.940;2022-12-07T04:39:53;2.27;;;1.40;;
54983;SDS011;40884;53.562;9.940;2022-12-07T04:40:54;3.00;;;1.50;;
54983;SDS011;40884;53.562;9.940;2022-12-07T04:41:54;3.37;;;1.60;;
54983;SDS011;40884;53.562;9.940;2022-12-07T04:42:55;2.37;;;1.50;;
54983;SDS011;40884;53.562;9.940;2022-12-07T04:44:55;5.20;;;1.67;;
54983;SDS011;40884;53.562;9.940;2022-12-07T04:45:55;3.27;;;1.60;;
54983;SDS011;40884;53.562;9.940;2022-12-07T04:46:55;2.30;;;1.50;;
54983;SDS011;40884;53.562;9.940;2022-12-07T04:47:56;4.20;;;1.50;;
54983;SDS011;40884;53.562;9.940;2022-12-07T04:48:56;3.23;;;1.87;;
54983;SDS011;40884;53.562;9.940;2022-12-07T04:49:56;3.70;;;1.03;;
54983;SDS011;40884;53.562;9.940;2022-12-07T04:50:56;2.13;;;1.50;;
54983;SDS011;40884;53.562;9.940;2022-12-07T04:51:56;3.83;;;1.40;;
54983;SDS011;40884;53.562;9.940;2022-12-07T04:52:56;4.20;;;1.67;;
54983;SDS011;40884;53.562;9.940;2022-12-07T04:53:57;3.83;;;1.70;;
54983;SDS011;40884;53.562;9.940;2022-12-07T04:54:57;2.33;;;1.67;;
54983;SDS011;40884;53.562;9.940;2022-12-07T04:55:57;3.87;;;1.40;;
54983;SDS011;40884;53.562;9.940;2022-12-07T04:56:57;2.50;;;1.60;;
54983;SDS011;40884;53.562;9.940;2022-12-07T04:57:57;5.20;;;1.30;;
54983;SDS011;40884;53.562;9.940;2022-12-07T04:58:58;3.33;;;1.70;;
54983;SDS011;40884;53.562;9.940;2022-12-07T04:59:58;3.13;;;1.80;;
54983;SDS011;40884;53.562;9.940;2022-12-07T05:00:58;4.53;;;2.20;;
54983;SDS011;40884;53.562;9.940;2022-12-07T05:01:58;2.10;;;1.70;;
54983;SDS011;40884;53.562;9.940;2022-12-07T05:02:58;4.73;;;1.67;;
54983;SDS011;40884;53.562;9.940;2022-12-07T05:03:58;3.73;;;1.87;;
54983;SDS011;40884;53.562;9.940;2022-12-07T05:04:58;4.73;;;1.60;;
54983;SDS011;40884;53.562;9.940;2022-12-07T05:05:58;3.50;;;1.60;;
54983;SDS011;40884;53.562;9.940;2022-12-07T05:06:59;3.60;;;1.60;;
54983;SDS011;40884;53.562;9.940;2022-12-07T05:07:59;5.07;;;1.73;;
54983;SDS011;40884;53.562;9.940;2022-12-07T05:08:59;3.10;;;1.70;;
54983;SDS011;40884;53.562;9.940;2022-12-07T05:09:59;3.43;;;1.60;;
54983;SDS011;40884;53.562;9.940;2022-12-07T05:11:00;4.30;;;1.70;;
54983;SDS011;40884;53.562;9.940;2022-12-07T05:12:00;3.93;;;1.90;;
54983;SDS011;40884;53.562;9.940;2022-12-07T05:13:00;4.97;;;1.80;;
54983;SDS011;40884;53.562;9.940;2022-12-07T05:14:01;3.37;;;1.50;;
54983;SDS011;40884;53.562;9.940;2022-12-07T05:15:01;4.63;;;1.57;;
54983;SDS011;40884;53.562;9.940;2022-12-07T05:16:01;2.63;;;1.70;;
54983;SDS011;40884;53.562;9.940;2022-12-07T05:17:02;3.43;;;1.67;;
54983;SDS011;40884;53.562;9.940;2022-12-07T05:18:02;6.00;;;1.97;;
54983;SDS011;40884;53.562;9.940;2022-12-07T05:19:02;2.53;;;1.63;;
54983;SDS011;40884;53.562;9.940;2022-12-07T05:20:03;4.10;;;1.90;;
54983;SDS011;40884;53.562;9.940;2022-12-07T05:21:04;11.00;;;2.10;;
54983;SDS011;40884;53.562;9.940;2022-12-07T05:22:04;3.37;;;1.90;;
54983;SDS011;40884;53.562;9.940;2022-12-07T05:23:04;3.80;;;1.93;;
54983;SDS011;40884;53.562;9.940;2022-12-07T05:24:04;4.10;;;1.63;;
54983;SDS011;40884;53.562;9.940;2022-12-07T05:25:05;3.67;;;1.70;;
54983;SDS011;40884;53.562;9.940;2022-12-07T05:26:05;2.73;;;1.77;;
54983;SDS011;40884;53.562;9.940;2022-12-07T05:27:05;3.87;;;1.80;;
54983;SDS011;40884;53.562;9.940;2022-12-07T05:28:05;3.60;;;1.97;;
54983;SDS011;40884;53.562;9.940;2022-12-07T05:29:06;2.90;;;1.50;;
54983;SDS011;40884;53.562;9.940;2022-12-07T05:30:06;2.63;;;1.60;;
54983;SDS011;40884;53.562;9.940;2022-12-07T05:31:06;3.17;;;2.07;;
54983;SDS011;40884;53.562;9.940;2022-12-07T05:32:06;2.87;;;1.70;;
54983;SDS011;40884;53.562;9.940;2022-12-07T05:33:06;4.47;;;2.00;;
54983;SDS011;40884;53.562;9.940;2022-12-07T05:34:07;4.30;;;1.67;;
54983;SDS011;40884;53.562;9.940;2022-12-07T05:35:07;2.33;;;1.87;;
54983;SDS011;40884;53.562;9.940;2022-12-07T05:36:07;4.07;;;2.83;;
54983;SDS011;40884;53.562;9.940;2022-12-07T05:37:07;5.87;;;2.83;;
54983;SDS011;40884;53.562;9.940;2022-12-07T05:38:07;3.70;;;2.53;;
54983;SDS011;40884;53.562;9.940;2022-12-07T05:39:08;3.83;;;2.67;;
54983;SDS011;40884;53.562;9.940;2022-12-07T05:40:08;5.80;;;2.10;;
54983;SDS011;40884;53.562;9.940;2022-12-07T05:41:09;5.87;;;1.93;;
54983;SDS011;40884;53.562;9.940;2022-12-07T05:42:11;3.23;;;1.90;;
54983;SDS011;40884;53.562;9.940;2022-12-07T05:43:11;2.00;;;1.60;;
54983;SDS011;40884;53.562;9.940;2022-12-07T05:44:11;2.83;;;1.70;;
54983;SDS011;40884;53.562;9.940;2022-12-07T05:45:12;4.53;;;2.03;;
54983;SDS011;40884;53.562;9.940;2022-12-07T05:46:12;3.33;;;1.80;;
54983;SDS011;40884;53.562;9.940;2022-12-07T05:47:12;4.00;;;1.97;;
54983;SDS011;40884;53.562;9.940;2022-12-07T05:48:13;3.50;;;2.13;;
54983;SDS011;40884;53.562;9.940;2022-12-07T05:49:13;5.83;;;2.10;;
54983;SDS011;40884;53.562;9.940;2022-12-07T05:50:13;3.63;;;2.50;;
54983;SDS011;40884;53.562;9.940;2022-12-07T05:51:13;2.47;;;1.70;;
54983;SDS011;40884;53.562;9.940;2022-12-07T05:52:13;2.37;;;1.60;;
54983;SDS011;40884;53.562;9.940;2022-12-07T05:53:13;3.03;;;2.27;;
54983;SDS011;40884;53.562;9.940;2022-12-07T05:54:13;5.33;;;2.53;;
54983;SDS011;40884;53.562;9.940;2022-12-07T05:55:13;4.60;;;2.40;;
54983;SDS011;40884;53.562;9.940;2022-12-07T05:56:14;5.03;;;2.57;;
54983;SDS011;40884;53.562;9.940;2022-12-07T05:57:14;5.23;;;2.40;;
54983;SDS011;40884;53.562;9.940;2022-12-07T05:58:14;2.57;;;1.90;;
54983;SDS011;40884;53.562;9.940;2022-12-07T05:59:14;2.77;;;2.17;;
54983;SDS011;40884;53.562;9.940;2022-12-07T06:00:14;4.97;;;2.10;;
54983;SDS011;40884;53.562;9.940;2022-12-07T06:01:15;3.90;;;2.40;;
54983;SDS011;40884;53.562;9.940;2022-12-07T06:02:15;3.87;;;2.13;;
54983;SDS011;40884;53.562;9.940;2022-12-07T06:03:15;3.77;;;2.07;;
54983;SDS011;40884;53.562;9.940;2022-12-07T06:04:16;4.10;;;2.20;;
54983;SDS011;40884;53.562;9.940;2022-12-07T06:05:16;3.57;;;2.10;;
54983;SDS011;40884;53.562;9.940;2022-12-07T06:06:16;4.60;;;2.50;;
54983;SDS011;40884;53.562;9.940;2022-12-07T06:07:16;4.73;;;2.30;;
54983;SDS011;40884;53.562;9.940;2022-12-07T06:08:16;3.27;;;2.17;;
54983;SDS011;40884;53.562;9.940;2022-12-07T06:09:17;3.73;;;2.30;;
54983;SDS011;40884;53.562;9.940;2022-12-07T06:10:17;2.83;;;2.30;;
54983;SDS011;40884;53.562;9.940;2022-12-07T06:11:17;4.70;;;2.23;;
54983;SDS011;40884;53.562;9.940;2022-12-07T06:12:17;3.63;;;2.63;;
54983;SDS011;40884;53.562;9.940;2022-12-07T06:13:17;5.40;;;2.60;;
54983;SDS011;40884;53.562;9.940;2022-12-07T06:14:18;5.17;;;2.73;;
54983;SDS011;40884;53.562;9.940;2022-12-07T06:15:18;6.03;;;2.60;;
54983;SDS011;40884;53.562;9.940;2022-12-07T06:16:18;5.53;;;2.70;;
54983;SDS011;40884;53.562;9.940;2022-12-07T06:17:18;7.63;;;2.47;;
54983;SDS011;40884;53.562;9.940;2022-12-07T06:18:18;3.47;;;2.50;;
54983;SDS011;40884;53.562;9.940;2022-12-07T06:19:18;4.80;;;2.70;;
54983;SDS011;40884;53.562;9.940;2022-12-07T06:20:18;4.07;;;2.33;;
54983;SDS011;40884;53.562;9.940;2022-12-07T06:21:18;4.87;;;2.73;;
54983;SDS011;40884;53.562;9.940;2022-12-07T06:22:19;3.43;;;2.23;;
54983;SDS011;40884;53.562;9.940;2022-12-07T06:23:19;3.53;;;2.43;;
54983;SDS011;40884;53.562;9.940;2022-12-07T06:24:19;6.97;;;2.87;;
54983;SDS011;40884;53.562;9.940;2022-12-07T06:25:19;4.73;;;2.40;;
54983;SDS011;40884;53.562;9.940;2022-12-07T06:26:19;5.07;;;2.40;;
54983;SDS011;40884;53.562;9.940;2022-12-07T06:27:19;5.40;;;2.50;;
54983;SDS011;40884;53.562;9.940;2022-12-07T06:28:20;3.47;;;2.47;;
54983;SDS011;40884;53.562;9.940;2022-12-07T06:29:20;7.10;;;2.50;;
54983;SDS011;40884;53.562;9.940;2022-12-07T06:30:20;3.30;;;2.47;;
54983;SDS011;40884;53.562;9.940;2022-12-07T06:31:20;3.87;;;2.10;;
54983;SDS011;40884;53.562;9.940;2022-12-07T06:32:20;8.30;;;2.43;;
54983;SDS011;40884;53.562;9.940;2022-12-07T06:33:20;5.17;;;2.30;;